createdAt,value
2018-08-17T00:01:12.815Z,10.25
2018-08-17T00:03:47.334Z,9.98
2018-08-17T00:06:18.959Z,7.62
2018-08-17T00:08:49.111Z,8.70
2018-08-17T00:11:23.551Z,9.52
2018-08-17T00:13:56.498Z,9.10
2018-08-17T00:16:31.159Z,8.18
2018-08-17T00:19:05.156Z,9.40
2018-08-17T00:21:38.142Z,10.25
2018-08-17T00:24:11.287Z,10.73
2018-08-17T00:26:42.860Z,9.75
2018-08-17T00:29:14.396Z,9.82
2018-08-17T00:31:46.075Z,8.50
2018-08-17T00:34:17.601Z,9.25
2018-08-17T00:36:49.209Z,9.48
2018-08-17T00:39:23.880Z,10.90
2018-08-17T00:41:54.976Z,10.65
2018-08-17T00:44:26.504Z,10.88
2018-08-17T00:47:00.962Z,12.55
2018-08-17T00:49:32.666Z,11.90
2018-08-17T00:52:05.770Z,11.73
2018-08-17T00:54:38.857Z,11.95
2018-08-17T00:57:12.455Z,11.60
2018-08-17T00:59:43.931Z,9.68
2018-08-17T01:02:17.072Z,9.35
2018-08-17T01:04:47.018Z,10.85
2018-08-17T01:07:20.127Z,9.57
2018-08-17T01:09:53.149Z,9.35
2018-08-17T01:12:26.591Z,8.95
2018-08-17T01:14:58.205Z,9.35
2018-08-17T01:17:31.403Z,9.93
2018-08-17T01:20:02.955Z,10.32
2018-08-17T01:22:36.082Z,9.85
2018-08-17T01:25:10.605Z,10.55
2018-08-17T01:27:43.777Z,9.52
2018-08-17T01:30:17.067Z,10.20
2018-08-17T01:32:51.536Z,10.77
2018-08-17T01:35:24.586Z,9.85
2018-08-17T01:37:57.823Z,9.50
2018-08-17T01:40:29.331Z,10.73
2018-08-17T01:43:02.216Z,9.65
2018-08-17T01:45:36.852Z,10.40
2018-08-17T01:48:09.220Z,10.50
2018-08-17T01:50:42.191Z,10.65
2018-08-17T01:53:12.856Z,10.48
2018-08-17T01:55:44.260Z,10.50
2018-08-17T01:58:18.708Z,10.18
2018-08-17T02:00:52.028Z,9.32
2018-08-17T02:03:23.578Z,9.60
2018-08-17T02:05:55.085Z,10.32
2018-08-17T02:08:28.494Z,12.18
2018-08-17T02:11:01.771Z,10.48
2018-08-17T02:13:35.056Z,14.23
2018-08-17T02:16:06.833Z,12.25
2018-08-17T02:18:38.421Z,11.88
2018-08-17T02:21:10.551Z,11.45
2018-08-17T02:23:42.031Z,11.85
2018-08-17T02:26:13.613Z,17.77
2018-08-17T02:28:46.805Z,18.52
2018-08-17T02:31:18.502Z,17.42
2018-08-17T02:33:53.402Z,14.70
2018-08-17T02:36:28.550Z,13.93
2018-08-17T02:39:00.068Z,13.55
2018-08-17T02:41:33.744Z,14.25
2018-08-17T02:44:05.396Z,14.63
2018-08-17T02:46:37.885Z,15.10
2018-08-17T02:49:10.874Z,15.93
2018-08-17T02:51:44.213Z,16.08
2018-08-17T02:54:15.752Z,16.50
2018-08-17T02:56:47.237Z,15.43
2018-08-17T02:59:21.894Z,16.52
2018-08-17T03:01:54.746Z,18.30
2018-08-17T03:04:28.049Z,18.20
2018-08-17T03:07:02.049Z,18.55
2018-08-17T03:09:34.917Z,18.90
2018-08-17T03:12:07.853Z,19.98
2018-08-17T03:14:39.500Z,18.73
2018-08-17T03:17:11.007Z,20.20
2018-08-17T03:19:42.612Z,21.30
2018-08-17T03:22:15.741Z,19.77
2018-08-17T03:24:46.446Z,19.35
2018-08-17T03:27:16.729Z,20.33
2018-08-17T03:29:48.161Z,19.20
2018-08-17T03:32:21.199Z,18.50
2018-08-17T03:34:55.657Z,18.62
2018-08-17T03:37:27.223Z,25.93
2018-08-17T03:40:00.318Z,25.60
2018-08-17T03:42:32.217Z,21.12
2018-08-17T03:45:05.218Z,19.90
2018-08-17T03:47:38.290Z,19.02
2018-08-17T03:50:11.022Z,20.62
2018-08-17T03:52:43.466Z,17.62
2018-08-17T03:55:16.577Z,18.55
2018-08-17T03:57:49.671Z,19.35
2018-08-17T04:00:20.389Z,17.40
2018-08-17T04:02:53.521Z,18.98
2018-08-17T04:05:26.608Z,19.37
2018-08-17T04:08:01.355Z,19.27
2018-08-17T04:10:34.504Z,16.83
2018-08-17T04:13:07.578Z,18.92
2018-08-17T04:15:39.107Z,17.52
2018-08-17T04:18:12.348Z,20.25
2018-08-17T04:20:45.533Z,20.45
2018-08-17T04:23:18.541Z,20.17
2018-08-17T04:25:51.649Z,22.67
2018-08-17T04:28:24.529Z,22.58
2018-08-17T04:30:56.111Z,24.75
2018-08-17T04:33:30.598Z,23.20
2018-08-17T04:36:02.160Z,24.63
2018-08-17T04:38:33.701Z,25.33
2018-08-17T04:41:08.373Z,23.73
2018-08-17T04:43:43.039Z,24.55
2018-08-17T04:46:14.486Z,22.95
2018-08-17T04:48:47.598Z,23.77
2018-08-17T04:51:20.793Z,24.55
2018-08-17T04:53:55.507Z,24.65
2018-08-17T04:56:27.529Z,25.50
2018-08-17T04:59:00.708Z,24.10
2018-08-17T05:01:32.266Z,23.73
2018-08-17T05:04:05.479Z,24.65
2018-08-17T05:06:39.949Z,23.35
2018-08-17T05:09:11.883Z,23.98
2018-08-17T05:11:43.495Z,23.42
2018-08-17T05:14:16.417Z,22.65
2018-08-17T05:16:47.964Z,22.30
2018-08-17T05:19:20.091Z,17.70
2018-08-17T05:21:51.790Z,16.60
2018-08-17T05:24:24.939Z,14.32
2018-08-17T05:26:57.919Z,14.35
2018-08-17T05:29:31.467Z,14.32
2018-08-17T05:32:03.113Z,12.98
2018-08-17T05:34:36.223Z,12.63
2018-08-17T05:37:09.653Z,13.10
2018-08-17T05:39:41.267Z,13.05
2018-08-17T05:42:15.815Z,12.07
2018-08-17T05:44:50.177Z,12.57
2018-08-17T05:47:23.326Z,13.13
2018-08-17T05:49:56.366Z,13.65
2018-08-17T05:52:27.932Z,12.02
2018-08-17T05:55:02.440Z,11.50
2018-08-17T05:57:32.654Z,12.73
2018-08-17T06:00:05.990Z,11.27
2018-08-17T06:02:40.621Z,11.27
2018-08-17T06:05:12.577Z,11.25
2018-08-17T06:07:45.883Z,11.00
2018-08-17T06:10:20.360Z,11.65
2018-08-17T06:12:52.638Z,11.35
2018-08-17T06:15:24.118Z,11.95
2018-08-17T06:17:55.576Z,12.45
2018-08-17T06:20:28.866Z,11.63
2018-08-17T06:23:02.019Z,12.40
2018-08-17T06:25:35.173Z,11.68
2018-08-17T06:28:08.181Z,10.60
2018-08-17T06:30:38.837Z,12.43
2018-08-17T06:33:10.356Z,11.68
2018-08-17T06:35:43.334Z,11.25
2018-08-17T06:38:18.118Z,11.02
2018-08-17T06:40:50.826Z,11.45
2018-08-17T06:43:25.514Z,11.40
2018-08-17T06:45:58.624Z,12.05
2018-08-17T06:48:30.139Z,12.48
2018-08-17T06:51:01.711Z,11.93
2018-08-17T06:53:34.804Z,12.13
2018-08-17T06:56:06.587Z,11.48
2018-08-17T06:58:40.153Z,10.45
2018-08-17T07:01:13.140Z,11.60
2018-08-17T07:03:46.100Z,11.77
2018-08-17T07:06:19.154Z,11.18
2018-08-17T07:08:49.518Z,11.65
2018-08-17T07:11:21.404Z,10.73
2018-08-17T07:13:53.277Z,10.23
2018-08-17T07:16:24.921Z,9.40
2018-08-17T07:18:56.428Z,10.68
2018-08-17T07:21:29.703Z,9.57
2018-08-17T07:24:03.127Z,10.10
2018-08-17T07:26:36.212Z,10.43
2018-08-17T07:29:07.748Z,10.45
2018-08-17T07:31:39.392Z,10.32
2018-08-17T07:34:12.290Z,8.90
2018-08-17T07:36:45.324Z,9.48
2018-08-17T07:39:16.744Z,9.57
2018-08-17T07:41:49.785Z,10.02
2018-08-17T07:44:22.668Z,8.43
2018-08-17T07:46:54.119Z,8.02
2018-08-17T07:49:27.230Z,7.07
2018-08-17T07:52:00.136Z,6.82
2018-08-17T07:54:30.145Z,6.80
2018-08-17T07:57:02.994Z,6.80
2018-08-17T07:59:35.973Z,7.07
2018-08-17T08:02:10.532Z,6.85
2018-08-17T08:04:43.479Z,6.90
2018-08-17T08:07:14.934Z,6.22
2018-08-17T08:09:47.845Z,6.45
2018-08-17T08:12:20.756Z,6.70
2018-08-17T08:14:52.200Z,5.55
2018-08-17T08:17:25.268Z,6.62
2018-08-17T08:20:35.540Z,6.32
2018-08-17T08:23:33.723Z,5.57
2018-08-17T08:26:05.351Z,4.72
2018-08-17T08:28:39.815Z,5.05
2018-08-17T08:31:12.683Z,6.37
2018-08-17T08:33:44.276Z,4.32
2018-08-17T08:36:15.707Z,5.40
2018-08-17T08:38:49.962Z,5.22
2018-08-17T08:41:20.849Z,5.00
2018-08-17T08:43:52.599Z,4.75
2018-08-17T08:46:23.982Z,3.90
2018-08-17T08:48:58.479Z,3.28
2018-08-17T08:51:28.245Z,2.55
2018-08-17T08:54:00.676Z,3.50
2018-08-17T08:56:31.696Z,4.37
2018-08-17T08:59:02.219Z,4.47
2018-08-17T09:01:36.616Z,4.05
2018-08-17T09:04:11.227Z,4.40
2018-08-17T09:06:44.308Z,4.18
2018-08-17T09:09:15.719Z,4.07
2018-08-17T09:11:49.077Z,4.12
2018-08-17T09:14:23.533Z,3.87
2018-08-17T09:16:56.049Z,3.85
2018-08-17T09:19:27.543Z,3.25
2018-08-17T09:22:02.084Z,3.50
2018-08-17T09:24:33.915Z,3.72
2018-08-17T09:27:07.241Z,3.83
2018-08-17T09:29:39.264Z,3.25
2018-08-17T09:32:12.138Z,3.75
2018-08-17T09:34:45.030Z,4.20
2018-08-17T09:37:14.953Z,4.05
2018-08-17T09:39:50.275Z,3.12
2018-08-17T09:42:20.756Z,3.47
2018-08-17T09:44:52.280Z,3.30
2018-08-17T09:47:26.682Z,3.20
2018-08-17T09:50:01.014Z,3.50
2018-08-17T09:52:34.867Z,3.28
2018-08-17T09:55:04.756Z,2.97
2018-08-17T09:57:38.670Z,3.08
2018-08-17T10:00:14.366Z,3.17
2018-08-17T10:03:03.447Z,3.20
2018-08-17T10:05:45.810Z,3.55
2018-08-17T10:08:34.537Z,3.12
2018-08-17T10:11:06.271Z,3.65
2018-08-17T10:13:40.583Z,3.00
2018-08-17T10:16:12.601Z,2.83
2018-08-17T10:18:48.286Z,3.08
2018-08-17T10:21:20.428Z,2.70
2018-08-17T10:23:54.489Z,2.92
2018-08-17T10:26:27.319Z,2.97
2018-08-17T10:28:59.829Z,2.67
2018-08-17T10:31:32.765Z,2.70
2018-08-17T10:34:05.858Z,2.85
2018-08-17T10:36:39.680Z,2.87
2018-08-17T10:39:11.690Z,2.65
2018-08-17T10:41:42.543Z,2.60
2018-08-17T10:44:15.981Z,2.87
2018-08-17T10:46:47.678Z,2.90
2018-08-17T10:49:22.178Z,2.85
2018-08-17T10:51:54.572Z,3.15
2018-08-17T10:54:26.449Z,2.35
2018-08-17T10:57:00.846Z,2.95
2018-08-17T10:59:33.842Z,2.80
2018-08-17T11:02:05.230Z,3.20
2018-08-17T11:04:36.795Z,3.15
2018-08-17T11:07:08.353Z,3.03
2018-08-17T11:09:39.970Z,3.25
2018-08-17T11:12:10.485Z,2.97
2018-08-17T11:14:41.839Z,2.83
2018-08-17T11:17:15.434Z,3.65
2018-08-17T11:19:47.443Z,3.10
2018-08-17T11:22:19.815Z,3.28
2018-08-17T11:24:54.500Z,3.10
2018-08-17T11:27:26.489Z,3.42
2018-08-17T11:30:01.077Z,3.75
2018-08-17T11:32:33.000Z,3.78
2018-08-17T11:35:04.352Z,3.80
2018-08-17T11:37:38.717Z,3.95
2018-08-17T11:40:14.699Z,3.50
2018-08-17T11:42:50.270Z,3.25
2018-08-17T11:45:25.075Z,3.40
2018-08-17T11:47:57.821Z,3.70
2018-08-17T11:50:32.095Z,3.62
2018-08-17T11:53:03.610Z,3.20
2018-08-17T11:55:37.287Z,3.25
2018-08-17T11:58:10.101Z,3.60
2018-08-17T12:00:43.073Z,3.22
2018-08-17T12:03:16.961Z,2.53
2018-08-17T12:05:49.115Z,3.05
2018-08-17T12:08:20.643Z,3.42
2018-08-17T12:11:01.173Z,3.80
2018-08-17T12:13:32.610Z,3.53
2018-08-17T12:16:03.020Z,3.10
2018-08-17T12:18:35.900Z,3.30
2018-08-17T12:21:08.855Z,3.53
2018-08-17T12:23:40.284Z,3.37
2018-08-17T12:26:11.805Z,2.50
2018-08-17T12:28:44.589Z,2.95
2018-08-17T12:31:17.937Z,3.10
2018-08-17T12:33:52.290Z,2.55
2018-08-17T12:36:24.473Z,2.65
2018-08-17T12:38:57.324Z,2.30
2018-08-17T12:41:30.336Z,2.85
2018-08-17T12:44:04.021Z,2.90
2018-08-17T12:46:36.981Z,2.65
2018-08-17T12:49:08.357Z,3.03
2018-08-17T12:51:41.286Z,3.22
2018-08-17T12:54:19.973Z,2.90
2018-08-17T12:56:51.636Z,3.33
2018-08-17T12:59:26.124Z,3.15
2018-08-17T13:01:59.322Z,3.10
2018-08-17T13:04:31.715Z,3.40
2018-08-17T13:07:01.628Z,3.22
2018-08-17T13:09:31.915Z,3.40
2018-08-17T13:12:04.630Z,3.62
2018-08-17T13:14:38.905Z,4.40
2018-08-17T13:17:11.783Z,3.80
2018-08-17T13:19:44.923Z,3.35
2018-08-17T13:22:16.394Z,3.20
2018-08-17T13:24:49.241Z,3.92
2018-08-17T13:27:19.786Z,4.03
2018-08-17T13:29:52.784Z,4.40
2018-08-17T13:32:26.256Z,4.05
2018-08-17T13:34:59.361Z,3.37
2018-08-17T13:37:32.331Z,4.32
2018-08-17T13:40:03.871Z,3.90
2018-08-17T13:42:35.146Z,4.18
2018-08-17T13:45:07.345Z,2.95
2018-08-17T13:47:42.589Z,3.47
2018-08-17T13:50:15.495Z,3.20
2018-08-17T13:52:46.920Z,3.55
2018-08-17T13:55:18.592Z,3.33
2018-08-17T13:57:50.031Z,3.50
2018-08-17T14:00:21.281Z,3.78
2018-08-17T14:02:52.599Z,3.10
2018-08-17T14:05:24.061Z,3.00
2018-08-17T14:07:56.075Z,3.20
2018-08-17T14:10:29.179Z,3.30
2018-08-17T14:13:00.644Z,5.80
2018-08-17T14:15:31.852Z,2.40
2018-08-17T14:18:04.649Z,2.95
2018-08-17T14:20:34.515Z,2.55
2018-08-17T14:23:06.395Z,3.12
2018-08-17T14:25:37.803Z,3.15
2018-08-17T14:28:09.225Z,3.45
2018-08-17T14:30:39.257Z,2.58
2018-08-17T14:33:12.062Z,2.67
2018-08-17T14:35:43.484Z,3.00
2018-08-17T14:38:15.588Z,2.30
2018-08-17T14:40:46.927Z,2.90
2018-08-17T14:43:18.334Z,3.00
2018-08-17T14:45:49.817Z,2.50
2018-08-17T14:48:21.242Z,2.72
2018-08-17T14:50:52.586Z,2.60
2018-08-17T14:53:24.027Z,2.20
2018-08-17T14:55:56.950Z,2.78
2018-08-17T14:58:28.869Z,2.20
2018-08-17T15:01:01.723Z,2.20
2018-08-17T15:03:35.044Z,2.53
2018-08-17T15:06:06.849Z,2.15
2018-08-17T15:08:39.799Z,2.22
2018-08-17T15:11:11.682Z,2.05
2018-08-17T15:13:43.672Z,2.42
2018-08-17T15:16:15.070Z,2.00
2018-08-17T15:18:46.672Z,2.58
2018-08-17T15:21:16.567Z,2.30
2018-08-17T15:23:47.963Z,2.40
2018-08-17T15:26:20.041Z,2.20
2018-08-17T15:28:51.481Z,2.17
2018-08-17T15:31:21.445Z,1.95
2018-08-17T15:33:53.116Z,1.90
2018-08-17T15:36:24.704Z,2.42
2018-08-17T15:38:58.982Z,2.60
2018-08-17T15:41:32.511Z,2.30
2018-08-17T15:44:04.135Z,1.83
2018-08-17T15:46:36.908Z,2.10
2018-08-17T15:49:08.440Z,2.37
2018-08-17T15:51:40.569Z,2.05
2018-08-17T15:54:13.502Z,1.90
2018-08-17T15:56:45.419Z,2.10
2018-08-17T15:59:16.945Z,1.90
2018-08-17T16:01:49.785Z,1.70
2018-08-17T16:04:22.716Z,1.60
2018-08-17T16:06:54.074Z,1.92
2018-08-17T16:09:28.386Z,1.73
2018-08-17T16:11:58.297Z,1.83
2018-08-17T16:14:31.115Z,1.52
2018-08-17T16:17:01.566Z,1.95
2018-08-17T16:19:31.464Z,1.83
2018-08-17T16:22:04.309Z,1.92
2018-08-17T16:24:37.330Z,1.73
2018-08-17T16:27:07.315Z,1.62
2018-08-17T16:29:39.509Z,2.00
2018-08-17T16:32:13.709Z,1.45
2018-08-17T16:34:45.070Z,1.42
2018-08-17T16:37:16.455Z,1.67
2018-08-17T16:39:58.873Z,1.70
2018-08-17T16:42:37.595Z,1.30
2018-08-17T16:45:11.851Z,1.50
2018-08-17T16:47:42.448Z,1.33
2018-08-17T16:50:15.520Z,1.67
2018-08-17T16:52:49.975Z,1.48
2018-08-17T16:55:22.014Z,1.33
2018-08-17T16:57:53.442Z,1.58
2018-08-17T17:00:24.955Z,1.50
2018-08-17T17:02:59.292Z,1.55
2018-08-17T17:05:29.283Z,1.62
2018-08-17T17:07:59.184Z,1.30
2018-08-17T17:10:34.554Z,1.80
2018-08-17T17:13:06.626Z,1.30
2018-08-17T17:15:40.949Z,1.73
2018-08-17T17:18:12.441Z,1.67
2018-08-17T17:20:43.955Z,1.73
2018-08-17T17:23:17.357Z,1.25
2018-08-17T17:25:50.242Z,1.73
2018-08-17T17:28:24.803Z,1.60
2018-08-17T17:30:56.815Z,1.55
2018-08-17T17:33:26.676Z,1.45
2018-08-17T17:35:58.231Z,1.65
2018-08-17T17:38:31.112Z,1.45
2018-08-17T17:41:04.090Z,1.20
2018-08-17T17:43:33.912Z,1.15
2018-08-17T17:46:06.869Z,1.67
2018-08-17T17:48:38.956Z,1.45
2018-08-17T17:51:10.346Z,1.45
2018-08-17T17:53:43.146Z,1.55
2018-08-17T17:56:14.652Z,1.60
2018-08-17T17:58:44.566Z,1.20
2018-08-17T18:01:19.111Z,1.40
2018-08-17T18:03:50.478Z,1.40
2018-08-17T18:06:21.123Z,1.30
2018-08-17T18:08:52.615Z,1.50
2018-08-17T18:11:25.534Z,1.45
2018-08-17T18:14:00.223Z,1.70
2018-08-17T18:16:33.115Z,1.30
2018-08-17T18:19:05.044Z,1.52
2018-08-17T18:21:35.588Z,1.42
2018-08-17T18:24:14.665Z,1.02
2018-08-17T18:26:54.231Z,1.25
2018-08-17T18:29:26.888Z,1.77
2018-08-17T18:31:59.913Z,1.55
2018-08-17T18:34:31.452Z,1.50
2018-08-17T18:37:01.337Z,1.62
2018-08-17T18:39:32.793Z,1.50
2018-08-17T18:42:04.440Z,1.37
2018-08-17T18:44:37.512Z,1.45
2018-08-17T18:47:08.923Z,1.30
2018-08-17T18:49:41.939Z,1.20
2018-08-17T18:52:14.812Z,1.60
2018-08-17T18:54:47.684Z,1.92
2018-08-17T18:57:19.173Z,1.10
2018-08-17T18:59:49.175Z,1.62
2018-08-17T19:02:19.100Z,1.52
2018-08-17T19:04:52.372Z,1.50
2018-08-17T19:07:25.244Z,1.42
2018-08-17T19:09:58.414Z,1.45
2018-08-17T19:12:31.535Z,1.40
2018-08-17T19:15:03.069Z,1.33
2018-08-17T19:17:37.018Z,1.23
2018-08-17T19:20:11.453Z,1.48
2018-08-17T19:22:48.789Z,1.50
2018-08-17T19:25:21.251Z,1.67
2018-08-17T19:27:54.363Z,2.20
2018-08-17T19:30:36.056Z,1.70
2018-08-17T19:33:16.376Z,1.75
2018-08-17T19:35:51.586Z,1.70
2018-08-17T19:38:25.991Z,1.70
2018-08-17T19:40:58.816Z,1.70
2018-08-17T19:43:28.803Z,1.90
2018-08-17T19:45:58.773Z,1.60
2018-08-17T19:48:32.144Z,2.30
2018-08-17T19:51:06.687Z,1.70
2018-08-17T19:53:41.884Z,1.75
2018-08-17T19:56:14.989Z,2.20
2018-08-17T19:58:47.973Z,2.35
2018-08-17T20:01:20.040Z,2.20
2018-08-17T20:03:50.063Z,2.00
2018-08-17T20:06:22.209Z,2.17
2018-08-17T20:08:56.537Z,2.25
2018-08-17T20:11:27.975Z,2.00
2018-08-17T20:14:01.202Z,2.00
2018-08-17T20:16:32.250Z,2.17
2018-08-17T20:19:04.306Z,2.33
2018-08-17T20:21:38.966Z,2.08
2018-08-17T20:24:12.127Z,2.00
2018-08-17T20:26:45.554Z,2.33
2018-08-17T20:29:15.426Z,2.45
2018-08-17T20:31:46.999Z,2.20
2018-08-17T20:34:18.626Z,2.60
2018-08-17T20:36:53.027Z,3.05
2018-08-17T20:39:26.084Z,2.60
2018-08-17T20:41:59.172Z,2.78
2018-08-17T20:44:31.633Z,2.70
2018-08-17T20:47:04.609Z,3.03
2018-08-17T20:49:36.308Z,3.12
2018-08-17T20:52:08.412Z,3.00
2018-08-17T20:54:41.502Z,2.78
2018-08-17T20:57:13.428Z,3.25
2018-08-17T20:59:45.333Z,3.00
2018-08-17T21:02:16.813Z,2.78
2018-08-17T21:04:49.916Z,2.67
2018-08-17T21:07:23.216Z,3.05
2018-08-17T21:09:54.782Z,3.30
2018-08-17T21:12:28.011Z,3.90
2018-08-17T21:15:02.800Z,3.95
2018-08-17T21:17:37.366Z,3.83
2018-08-17T21:20:12.226Z,3.90
2018-08-17T21:22:47.540Z,3.80
2018-08-17T21:25:22.129Z,4.20
2018-08-17T21:27:56.200Z,4.20
2018-08-17T21:30:30.818Z,4.93
2018-08-17T21:33:02.318Z,4.62
2018-08-17T21:35:35.375Z,4.50
2018-08-17T21:38:07.075Z,4.80
2018-08-17T21:40:37.210Z,4.35
2018-08-17T21:43:11.759Z,4.80
2018-08-17T21:45:45.262Z,4.90
2018-08-17T21:48:30.895Z,5.22
2018-08-17T21:51:04.242Z,4.50
2018-08-17T21:53:37.226Z,5.00
2018-08-17T21:56:08.816Z,5.53
2018-08-17T21:58:43.675Z,4.62
2018-08-17T22:01:13.752Z,5.00
2018-08-17T22:03:43.725Z,5.07
2018-08-17T22:06:17.296Z,4.68
2018-08-17T22:08:50.305Z,4.93
2018-08-17T22:11:43.184Z,5.70
2018-08-17T22:14:16.649Z,5.47
2018-08-17T22:16:48.029Z,5.50
2018-08-17T22:19:58.865Z,5.53
2018-08-17T22:22:31.001Z,7.10
2018-08-17T22:25:02.466Z,6.03
2018-08-17T22:27:35.764Z,6.28
2018-08-17T22:30:08.726Z,6.62
2018-08-17T22:32:38.652Z,5.85
2018-08-17T22:35:11.979Z,6.10
2018-08-17T22:37:46.518Z,5.47
2018-08-17T22:40:19.603Z,5.60
2018-08-17T22:42:53.605Z,6.03
2018-08-17T22:45:25.119Z,5.40
2018-08-17T22:47:58.680Z,4.85
2018-08-17T22:50:31.008Z,5.65
2018-08-17T22:53:04.090Z,6.00
2018-08-17T22:55:37.070Z,5.28
2018-08-17T22:58:07.792Z,5.82
2018-08-17T23:00:39.464Z,6.35
2018-08-17T23:03:12.468Z,6.30
2018-08-17T23:05:45.040Z,5.90
2018-08-17T23:08:15.050Z,5.75
2018-08-17T23:10:46.693Z,5.72
2018-08-17T23:13:20.172Z,5.32
2018-08-17T23:15:51.532Z,5.05
2018-08-17T23:18:24.576Z,5.20
2018-08-17T23:20:57.694Z,4.82
2018-08-17T23:23:27.748Z,5.10
2018-08-17T23:26:00.836Z,4.28
2018-08-17T23:28:33.692Z,5.10
2018-08-17T23:31:06.137Z,4.87
2018-08-17T23:33:37.652Z,5.37
2018-08-17T23:36:07.823Z,5.00
2018-08-17T23:38:42.397Z,4.80
2018-08-17T23:41:14.640Z,4.60
2018-08-17T23:43:44.662Z,4.68
2018-08-17T23:46:16.183Z,4.82
2018-08-17T23:48:46.994Z,4.93
2018-08-17T23:51:18.827Z,4.78
2018-08-17T23:53:50.384Z,5.60
2018-08-17T23:56:23.090Z,4.65
2018-08-17T23:58:54.604Z,5.03
